sensor_id;sensor_type;location;lat;lon;timestamp;temperature;humidity
25616;DHT22;13482;48.234;13.006;2023-07-08T00:00:53;20.80;52.70
25616;DHT22;13482;48.234;13.006;2023-07-08T00:03:21;20.80;52.40
25616;DHT22;13482;48.234;13.006;2023-07-08T00:05:53;20.70;52.50
25616;DHT22;13482;48.234;13.006;2023-07-08T00:08:23;20.70;53.00
25616;DHT22;13482;48.234;13.006;2023-07-08T00:10:50;20.70;52.80
25616;DHT22;13482;48.234;13.006;2023-07-08T00:13:18;20.60;52.90
25616;DHT22;13482;48.234;13.006;2023-07-08T00:15:46;20.60;52.90
25616;DHT22;13482;48.234;13.006;2023-07-08T00:18:15;20.60;53.00
25616;DHT22;13482;48.234;13.006;2023-07-08T00:20:47;20.60;53.10
25616;DHT22;13482;48.234;13.006;2023-07-08T00:23:16;20.60;53.30
25616;DHT22;13482;48.234;13.006;2023-07-08T00:25:49;20.60;53.20
25616;DHT22;13482;48.234;13.006;2023-07-08T00:28:18;20.60;53.30
25616;DHT22;13482;48.234;13.006;2023-07-08T00:30:48;20.50;53.50
25616;DHT22;13482;48.234;13.006;2023-07-08T00:33:16;20.60;53.40
25616;DHT22;13482;48.234;13.006;2023-07-08T00:35:45;20.50;53.50
25616;DHT22;13482;48.234;13.006;2023-07-08T00:38:15;20.50;53.70
25616;DHT22;13482;48.234;13.006;2023-07-08T00:41:06;20.60;53.90
25616;DHT22;13482;48.234;13.006;2023-07-08T00:43:54;20.60;54.20
25616;DHT22;13482;48.234;13.006;2023-07-08T00:51:39;20.50;54.80
25616;DHT22;13482;48.234;13.006;2023-07-08T00:54:17;20.50;54.30
25616;DHT22;13482;48.234;13.006;2023-07-08T00:56:51;20.50;54.80
25616;DHT22;13482;48.234;13.006;2023-07-08T00:59:51;20.50;54.20
25616;DHT22;13482;48.234;13.006;2023-07-08T01:02:23;20.50;55.40
25616;DHT22;13482;48.234;13.006;2023-07-08T01:05:05;20.50;54.20
25616;DHT22;13482;48.234;13.006;2023-07-08T01:07:39;20.50;55.20
25616;DHT22;13482;48.234;13.006;2023-07-08T01:10:12;20.50;54.30
25616;DHT22;13482;48.234;13.006;2023-07-08T01:12:46;20.50;54.20
25616;DHT22;13482;48.234;13.006;2023-07-08T01:15:15;20.50;54.30
25616;DHT22;13482;48.234;13.006;2023-07-08T01:17:43;20.50;54.10
25616;DHT22;13482;48.234;13.006;2023-07-08T01:20:12;20.50;54.20
25616;DHT22;13482;48.234;13.006;2023-07-08T01:22:43;20.40;54.30
25616;DHT22;13482;48.234;13.006;2023-07-08T01:25:12;20.40;54.30
25616;DHT22;13482;48.234;13.006;2023-07-08T01:27:46;20.40;54.50
25616;DHT22;13482;48.234;13.006;2023-07-08T01:30:16;20.40;55.10
25616;DHT22;13482;48.234;13.006;2023-07-08T01:32:48;20.40;54.70
25616;DHT22;13482;48.234;13.006;2023-07-08T01:35:18;20.40;55.00
25616;DHT22;13482;48.234;13.006;2023-07-08T01:37:58;20.30;54.80
25616;DHT22;13482;48.234;13.006;2023-07-08T01:40:33;20.30;55.80
25616;DHT22;13482;48.234;13.006;2023-07-08T01:43:04;20.30;54.90
25616;DHT22;13482;48.234;13.006;2023-07-08T01:45:38;20.30;55.00
25616;DHT22;13482;48.234;13.006;2023-07-08T01:48:11;20.30;55.10
25616;DHT22;13482;48.234;13.006;2023-07-08T01:51:04;20.20;55.30
25616;DHT22;13482;48.234;13.006;2023-07-08T01:53:35;20.20;56.40
25616;DHT22;13482;48.234;13.006;2023-07-08T01:56:05;20.20;55.30
25616;DHT22;13482;48.234;13.006;2023-07-08T01:58:34;20.20;55.20
25616;DHT22;13482;48.234;13.006;2023-07-08T02:01:02;20.20;55.30
25616;DHT22;13482;48.234;13.006;2023-07-08T02:03:30;20.20;55.40
25616;DHT22;13482;48.234;13.006;2023-07-08T02:05:58;20.20;55.50
25616;DHT22;13482;48.234;13.006;2023-07-08T02:08:26;20.10;55.40
25616;DHT22;13482;48.234;13.006;2023-07-08T02:10:58;20.10;55.40
25616;DHT22;13482;48.234;13.006;2023-07-08T02:13:26;20.10;55.70
25616;DHT22;13482;48.234;13.006;2023-07-08T02:15:53;20.00;55.60
25616;DHT22;13482;48.234;13.006;2023-07-08T02:18:21;20.00;55.70
25616;DHT22;13482;48.234;13.006;2023-07-08T02:20:51;20.00;55.80
25616;DHT22;13482;48.234;13.006;2023-07-08T02:23:19;20.00;55.80
25616;DHT22;13482;48.234;13.006;2023-07-08T02:25:54;20.00;55.90
25616;DHT22;13482;48.234;13.006;2023-07-08T02:28:23;20.00;56.60
25616;DHT22;13482;48.234;13.006;2023-07-08T02:30:50;20.00;56.20
25616;DHT22;13482;48.234;13.006;2023-07-08T02:33:17;19.90;56.20
25616;DHT22;13482;48.234;13.006;2023-07-08T02:35:45;19.90;56.30
25616;DHT22;13482;48.234;13.006;2023-07-08T02:38:13;19.90;56.50
25616;DHT22;13482;48.234;13.006;2023-07-08T02:40:42;19.90;56.60
25616;DHT22;13482;48.234;13.006;2023-07-08T02:43:10;19.90;56.50
25616;DHT22;13482;48.234;13.006;2023-07-08T02:45:38;19.90;56.60
25616;DHT22;13482;48.234;13.006;2023-07-08T02:48:05;19.90;56.70
25616;DHT22;13482;48.234;13.006;2023-07-08T02:50:33;19.80;56.60
25616;DHT22;13482;48.234;13.006;2023-07-08T02:53:00;19.80;56.70
25616;DHT22;13482;48.234;13.006;2023-07-08T02:55:27;19.80;56.60
25616;DHT22;13482;48.234;13.006;2023-07-08T02:57:55;19.80;56.60
25616;DHT22;13482;48.234;13.006;2023-07-08T03:00:22;19.80;56.70
25616;DHT22;13482;48.234;13.006;2023-07-08T03:02:50;19.70;56.80
25616;DHT22;13482;48.234;13.006;2023-07-08T03:05:17;19.70;56.90
25616;DHT22;13482;48.234;13.006;2023-07-08T03:07:45;19.70;56.80
25616;DHT22;13482;48.234;13.006;2023-07-08T03:10:13;19.60;57.00
25616;DHT22;13482;48.234;13.006;2023-07-08T03:12:40;19.60;57.00
25616;DHT22;13482;48.234;13.006;2023-07-08T03:15:08;19.60;57.00
25616;DHT22;13482;48.234;13.006;2023-07-08T03:17:36;19.60;57.00
25616;DHT22;13482;48.234;13.006;2023-07-08T03:20:04;19.60;57.10
25616;DHT22;13482;48.234;13.006;2023-07-08T03:22:33;19.50;57.30
25616;DHT22;13482;48.234;13.006;2023-07-08T03:25:00;19.50;57.40
25616;DHT22;13482;48.234;13.006;2023-07-08T03:27:28;19.50;57.50
25616;DHT22;13482;48.234;13.006;2023-07-08T03:29:55;19.50;57.50
25616;DHT22;13482;48.234;13.006;2023-07-08T03:32:23;19.50;57.60
25616;DHT22;13482;48.234;13.006;2023-07-08T03:34:52;19.60;57.60
25616;DHT22;13482;48.234;13.006;2023-07-08T03:37:20;19.60;57.70
25616;DHT22;13482;48.234;13.006;2023-07-08T03:39:48;19.60;57.80
25616;DHT22;13482;48.234;13.006;2023-07-08T03:42:15;19.60;57.70
25616;DHT22;13482;48.234;13.006;2023-07-08T03:44:43;19.60;57.80
25616;DHT22;13482;48.234;13.006;2023-07-08T03:47:10;19.70;57.80
25616;DHT22;13482;48.234;13.006;2023-07-08T03:49:37;19.70;57.90
25616;DHT22;13482;48.234;13.006;2023-07-08T03:52:07;19.70;58.00
25616;DHT22;13482;48.234;13.006;2023-07-08T03:54:42;19.70;58.10
25616;DHT22;13482;48.234;13.006;2023-07-08T03:57:11;19.80;58.10
25616;DHT22;13482;48.234;13.006;2023-07-08T03:59:38;19.80;58.20
25616;DHT22;13482;48.234;13.006;2023-07-08T04:02:10;19.90;58.30
25616;DHT22;13482;48.234;13.006;2023-07-08T04:04:38;19.90;58.50
25616;DHT22;13482;48.234;13.006;2023-07-08T04:07:06;20.00;58.40
25616;DHT22;13482;48.234;13.006;2023-07-08T04:09:33;20.10;58.50
25616;DHT22;13482;48.234;13.006;2023-07-08T04:12:01;20.10;58.70
25616;DHT22;13482;48.234;13.006;2023-07-08T04:14:28;20.20;58.90
25616;DHT22;13482;48.234;13.006;2023-07-08T04:16:57;20.30;59.00
25616;DHT22;13482;48.234;13.006;2023-07-08T04:19:26;20.40;59.10
25616;DHT22;13482;48.234;13.006;2023-07-08T04:21:54;20.50;59.10
25616;DHT22;13482;48.234;13.006;2023-07-08T04:24:21;20.60;59.10
25616;DHT22;13482;48.234;13.006;2023-07-08T04:26:49;20.70;58.90
25616;DHT22;13482;48.234;13.006;2023-07-08T04:29:20;20.80;59.00
25616;DHT22;13482;48.234;13.006;2023-07-08T04:31:49;21.00;59.30
25616;DHT22;13482;48.234;13.006;2023-07-08T04:34:17;21.10;59.00
25616;DHT22;13482;48.234;13.006;2023-07-08T04:36:45;21.20;59.00
25616;DHT22;13482;48.234;13.006;2023-07-08T04:39:13;21.30;59.10
25616;DHT22;13482;48.234;13.006;2023-07-08T04:41:41;21.50;59.00
25616;DHT22;13482;48.234;13.006;2023-07-08T04:44:11;21.60;58.80
25616;DHT22;13482;48.234;13.006;2023-07-08T04:46:49;21.70;58.70
25616;DHT22;13482;48.234;13.006;2023-07-08T04:49:20;21.80;58.60
25616;DHT22;13482;48.234;13.006;2023-07-08T04:51:50;21.90;58.50
25616;DHT22;13482;48.234;13.006;2023-07-08T04:54:19;21.90;58.40
25616;DHT22;13482;48.234;13.006;2023-07-08T04:56:48;21.90;58.20
25616;DHT22;13482;48.234;13.006;2023-07-08T04:59:20;22.00;58.20
25616;DHT22;13482;48.234;13.006;2023-07-08T05:01:49;22.00;58.20
25616;DHT22;13482;48.234;13.006;2023-07-08T05:04:21;22.00;58.10
25616;DHT22;13482;48.234;13.006;2023-07-08T05:06:49;22.10;58.30
25616;DHT22;13482;48.234;13.006;2023-07-08T05:09:17;22.10;58.30
25616;DHT22;13482;48.234;13.006;2023-07-08T05:11:45;22.10;58.40
25616;DHT22;13482;48.234;13.006;2023-07-08T05:14:13;22.20;58.40
25616;DHT22;13482;48.234;13.006;2023-07-08T05:16:41;22.20;58.60
25616;DHT22;13482;48.234;13.006;2023-07-08T05:19:09;22.30;58.60
25616;DHT22;13482;48.234;13.006;2023-07-08T05:21:37;22.30;58.70
25616;DHT22;13482;48.234;13.006;2023-07-08T05:24:06;22.40;58.80
25616;DHT22;13482;48.234;13.006;2023-07-08T05:26:34;22.50;59.00
25616;DHT22;13482;48.234;13.006;2023-07-08T05:29:01;22.60;59.10
25616;DHT22;13482;48.234;13.006;2023-07-08T05:31:29;22.80;59.00
25616;DHT22;13482;48.234;13.006;2023-07-08T05:34:14;22.90;59.00
25616;DHT22;13482;48.234;13.006;2023-07-08T05:36:46;23.10;58.80
25616;DHT22;13482;48.234;13.006;2023-07-08T05:39:16;23.30;58.90
25616;DHT22;13482;48.234;13.006;2023-07-08T05:41:44;23.40;58.80
25616;DHT22;13482;48.234;13.006;2023-07-08T05:44:12;23.60;58.70
25616;DHT22;13482;48.234;13.006;2023-07-08T05:46:39;23.80;58.50
25616;DHT22;13482;48.234;13.006;2023-07-08T05:49:07;23.90;58.60
25616;DHT22;13482;48.234;13.006;2023-07-08T05:51:36;24.10;58.50
25616;DHT22;13482;48.234;13.006;2023-07-08T05:54:04;24.30;58.60
25616;DHT22;13482;48.234;13.006;2023-07-08T05:56:32;24.50;58.70
25616;DHT22;13482;48.234;13.006;2023-07-08T05:58:59;24.70;58.50
25616;DHT22;13482;48.234;13.006;2023-07-08T06:01:27;24.90;58.30
25616;DHT22;13482;48.234;13.006;2023-07-08T06:03:54;25.20;58.00
25616;DHT22;13482;48.234;13.006;2023-07-08T06:06:26;25.40;57.80
25616;DHT22;13482;48.234;13.006;2023-07-08T06:08:56;25.50;57.40
25616;DHT22;13482;48.234;13.006;2023-07-08T06:11:23;25.70;57.00
25616;DHT22;13482;48.234;13.006;2023-07-08T06:13:51;25.90;57.00
25616;DHT22;13482;48.234;13.006;2023-07-08T06:16:18;26.10;56.80
25616;DHT22;13482;48.234;13.006;2023-07-08T06:19:05;26.20;56.90
25616;DHT22;13482;48.234;13.006;2023-07-08T06:21:33;26.40;56.50
25616;DHT22;13482;48.234;13.006;2023-07-08T06:24:00;26.60;56.20
25616;DHT22;13482;48.234;13.006;2023-07-08T06:26:27;26.70;55.90
25616;DHT22;13482;48.234;13.006;2023-07-08T06:28:55;26.80;55.80
25616;DHT22;13482;48.234;13.006;2023-07-08T06:31:22;26.90;55.70
25616;DHT22;13482;48.234;13.006;2023-07-08T06:33:51;27.00;55.60
25616;DHT22;13482;48.234;13.006;2023-07-08T06:36:18;27.10;55.30
25616;DHT22;13482;48.234;13.006;2023-07-08T06:38:46;27.20;55.20
25616;DHT22;13482;48.234;13.006;2023-07-08T06:41:13;27.30;55.00
25616;DHT22;13482;48.234;13.006;2023-07-08T06:43:40;27.40;55.00
25616;DHT22;13482;48.234;13.006;2023-07-08T06:46:08;27.50;55.00
25616;DHT22;13482;48.234;13.006;2023-07-08T06:48:36;27.60;55.10
25616;DHT22;13482;48.234;13.006;2023-07-08T06:51:03;27.70;54.80
25616;DHT22;13482;48.234;13.006;2023-07-08T06:53:30;27.80;54.80
25616;DHT22;13482;48.234;13.006;2023-07-08T06:55:58;28.00;54.80
25616;DHT22;13482;48.234;13.006;2023-07-08T06:58:26;28.10;55.00
25616;DHT22;13482;48.234;13.006;2023-07-08T07:00:54;28.30;54.70
25616;DHT22;13482;48.234;13.006;2023-07-08T07:03:21;28.40;54.40
25616;DHT22;13482;48.234;13.006;2023-07-08T07:05:51;28.60;54.30
25616;DHT22;13482;48.234;13.006;2023-07-08T07:08:18;28.70;54.00
25616;DHT22;13482;48.234;13.006;2023-07-08T07:10:46;28.80;54.10
25616;DHT22;13482;48.234;13.006;2023-07-08T07:13:13;29.00;54.30
25616;DHT22;13482;48.234;13.006;2023-07-08T07:15:41;29.10;53.90
25616;DHT22;13482;48.234;13.006;2023-07-08T07:18:08;29.30;53.70
25616;DHT22;13482;48.234;13.006;2023-07-08T07:20:37;29.40;53.50
25616;DHT22;13482;48.234;13.006;2023-07-08T07:23:05;29.60;53.10
25616;DHT22;13482;48.234;13.006;2023-07-08T07:25:32;29.70;52.80
25616;DHT22;13482;48.234;13.006;2023-07-08T07:28:00;29.80;52.60
25616;DHT22;13482;48.234;13.006;2023-07-08T07:30:28;29.90;52.70
25616;DHT22;13482;48.234;13.006;2023-07-08T07:32:59;30.10;52.40
25616;DHT22;13482;48.234;13.006;2023-07-08T07:35:27;30.20;52.20
25616;DHT22;13482;48.234;13.006;2023-07-08T07:37:54;30.30;52.20
25616;DHT22;13482;48.234;13.006;2023-07-08T07:40:22;30.40;52.00
25616;DHT22;13482;48.234;13.006;2023-07-08T07:42:49;30.50;51.90
25616;DHT22;13482;48.234;13.006;2023-07-08T07:45:17;30.60;51.80
25616;DHT22;13482;48.234;13.006;2023-07-08T07:47:44;30.80;51.70
25616;DHT22;13482;48.234;13.006;2023-07-08T07:50:12;30.90;51.80
25616;DHT22;13482;48.234;13.006;2023-07-08T07:52:40;31.00;51.50
25616;DHT22;13482;48.234;13.006;2023-07-08T07:55:10;31.10;51.50
25616;DHT22;13482;48.234;13.006;2023-07-08T07:57:37;31.20;51.40
25616;DHT22;13482;48.234;13.006;2023-07-08T08:00:06;31.30;51.10
25616;DHT22;13482;48.234;13.006;2023-07-08T08:02:34;31.50;51.40
25616;DHT22;13482;48.234;13.006;2023-07-08T08:05:02;31.60;51.10
25616;DHT22;13482;48.234;13.006;2023-07-08T08:07:30;31.70;50.70
25616;DHT22;13482;48.234;13.006;2023-07-08T08:09:57;31.80;50.40
25616;DHT22;13482;48.234;13.006;2023-07-08T08:12:25;32.00;50.60
25616;DHT22;13482;48.234;13.006;2023-07-08T08:14:56;32.10;50.50
25616;DHT22;13482;48.234;13.006;2023-07-08T08:17:24;32.30;50.20
25616;DHT22;13482;48.234;13.006;2023-07-08T08:19:51;32.40;49.90
25616;DHT22;13482;48.234;13.006;2023-07-08T08:22:19;32.50;49.70
25616;DHT22;13482;48.234;13.006;2023-07-08T08:24:48;32.60;49.40
25616;DHT22;13482;48.234;13.006;2023-07-08T08:27:16;32.60;49.30
25616;DHT22;13482;48.234;13.006;2023-07-08T08:29:44;32.70;49.10
25616;DHT22;13482;48.234;13.006;2023-07-08T08:32:12;32.70;49.10
25616;DHT22;13482;48.234;13.006;2023-07-08T08:34:41;32.70;49.20
25616;DHT22;13482;48.234;13.006;2023-07-08T08:37:09;32.80;49.30
25616;DHT22;13482;48.234;13.006;2023-07-08T08:39:36;32.90;49.00
25616;DHT22;13482;48.234;13.006;2023-07-08T08:42:07;32.90;48.90
25616;DHT22;13482;48.234;13.006;2023-07-08T08:44:44;33.00;48.70
25616;DHT22;13482;48.234;13.006;2023-07-08T08:49:56;33.00;48.20
25616;DHT22;13482;48.234;13.006;2023-07-08T08:52:28;32.90;48.10
25616;DHT22;13482;48.234;13.006;2023-07-08T08:54:55;32.90;48.30
25616;DHT22;13482;48.234;13.006;2023-07-08T08:57:42;32.90;48.40
25616;DHT22;13482;48.234;13.006;2023-07-08T09:00:18;33.00;48.30
25616;DHT22;13482;48.234;13.006;2023-07-08T09:02:58;33.00;48.40
25616;DHT22;13482;48.234;13.006;2023-07-08T09:05:29;33.20;48.70
25616;DHT22;13482;48.234;13.006;2023-07-08T09:11:14;33.50;48.20
25616;DHT22;13482;48.234;13.006;2023-07-08T09:13:49;33.60;48.50
25616;DHT22;13482;48.234;13.006;2023-07-08T09:19:23;34.10;48.30
25616;DHT22;13482;48.234;13.006;2023-07-08T09:22:19;34.20;47.80
25616;DHT22;13482;48.234;13.006;2023-07-08T09:24:59;34.40;47.40
25616;DHT22;13482;48.234;13.006;2023-07-08T09:27:31;34.60;47.60
25616;DHT22;13482;48.234;13.006;2023-07-08T09:29:58;34.70;47.50
25616;DHT22;13482;48.234;13.006;2023-07-08T09:32:27;34.70;47.40
25616;DHT22;13482;48.234;13.006;2023-07-08T09:35:03;34.80;47.20
25616;DHT22;13482;48.234;13.006;2023-07-08T09:37:35;34.90;46.70
25616;DHT22;13482;48.234;13.006;2023-07-08T09:40:16;34.90;46.90
25616;DHT22;13482;48.234;13.006;2023-07-08T09:42:54;34.90;46.30
25616;DHT22;13482;48.234;13.006;2023-07-08T09:45:25;35.00;46.90
25616;DHT22;13482;48.234;13.006;2023-07-08T09:47:54;35.00;47.10
25616;DHT22;13482;48.234;13.006;2023-07-08T09:50:30;35.10;46.80
25616;DHT22;13482;48.234;13.006;2023-07-08T09:53:01;35.10;46.10
25616;DHT22;13482;48.234;13.006;2023-07-08T09:55:28;35.10;46.20
25616;DHT22;13482;48.234;13.006;2023-07-08T09:57:58;35.10;46.40
25616;DHT22;13482;48.234;13.006;2023-07-08T10:00:56;35.10;46.10
25616;DHT22;13482;48.234;13.006;2023-07-08T10:03:28;35.10;45.70
25616;DHT22;13482;48.234;13.006;2023-07-08T10:06:03;35.10;46.00
25616;DHT22;13482;48.234;13.006;2023-07-08T10:08:44;35.10;45.70
25616;DHT22;13482;48.234;13.006;2023-07-08T10:11:30;35.00;45.80
25616;DHT22;13482;48.234;13.006;2023-07-08T10:14:04;35.00;45.60
25616;DHT22;13482;48.234;13.006;2023-07-08T10:16:41;34.90;45.70
25616;DHT22;13482;48.234;13.006;2023-07-08T10:19:15;34.90;45.70
25616;DHT22;13482;48.234;13.006;2023-07-08T10:22:06;34.90;45.60
25616;DHT22;13482;48.234;13.006;2023-07-08T10:27:39;34.80;45.30
25616;DHT22;13482;48.234;13.006;2023-07-08T10:33:04;34.70;45.60
25616;DHT22;13482;48.234;13.006;2023-07-08T10:35:54;34.70;45.80
25616;DHT22;13482;48.234;13.006;2023-07-08T10:38:46;34.60;45.90
25616;DHT22;13482;48.234;13.006;2023-07-08T10:45:21;34.70;45.70
25616;DHT22;13482;48.234;13.006;2023-07-08T10:54:05;34.90;45.50
25616;DHT22;13482;48.234;13.006;2023-07-08T10:57:14;35.00;44.80
25616;DHT22;13482;48.234;13.006;2023-07-08T11:03:06;35.10;45.40
25616;DHT22;13482;48.234;13.006;2023-07-08T11:09:18;35.20;44.60
25616;DHT22;13482;48.234;13.006;2023-07-08T11:11:59;35.20;45.10
25616;DHT22;13482;48.234;13.006;2023-07-08T11:14:56;35.30;44.60
25616;DHT22;13482;48.234;13.006;2023-07-08T11:18:33;35.20;44.30
25616;DHT22;13482;48.234;13.006;2023-07-08T11:21:02;35.10;44.30
25616;DHT22;13482;48.234;13.006;2023-07-08T11:24:05;34.90;44.80
25616;DHT22;13482;48.234;13.006;2023-07-08T11:27:06;34.80;44.90
25616;DHT22;13482;48.234;13.006;2023-07-08T11:29:55;34.80;45.10
25616;DHT22;13482;48.234;13.006;2023-07-08T11:32:30;34.80;44.30
25616;DHT22;13482;48.234;13.006;2023-07-08T11:35:02;34.80;44.80
25616;DHT22;13482;48.234;13.006;2023-07-08T11:37:32;34.80;44.80
25616;DHT22;13482;48.234;13.006;2023-07-08T11:40:19;34.80;44.70
25616;DHT22;13482;48.234;13.006;2023-07-08T11:42:50;34.80;44.00
25616;DHT22;13482;48.234;13.006;2023-07-08T11:48:18;34.70;44.50
25616;DHT22;13482;48.234;13.006;2023-07-08T11:50:50;34.60;44.50
25616;DHT22;13482;48.234;13.006;2023-07-08T11:53:35;34.60;44.60
25616;DHT22;13482;48.234;13.006;2023-07-08T11:56:19;34.60;44.70
25616;DHT22;13482;48.234;13.006;2023-07-08T11:59:17;34.70;44.80
25616;DHT22;13482;48.234;13.006;2023-07-08T12:01:52;34.80;44.40
25616;DHT22;13482;48.234;13.006;2023-07-08T12:07:17;34.80;44.90
25616;DHT22;13482;48.234;13.006;2023-07-08T12:09:57;34.90;45.10
25616;DHT22;13482;48.234;13.006;2023-07-08T12:12:35;35.00;45.30
25616;DHT22;13482;48.234;13.006;2023-07-08T12:15:21;35.20;45.10
25616;DHT22;13482;48.234;13.006;2023-07-08T12:18:03;35.30;44.70
25616;DHT22;13482;48.234;13.006;2023-07-08T12:20:49;35.50;44.60
25616;DHT22;13482;48.234;13.006;2023-07-08T12:23:24;35.70;44.40
25616;DHT22;13482;48.234;13.006;2023-07-08T12:25:54;35.80;44.40
25616;DHT22;13482;48.234;13.006;2023-07-08T12:28:24;35.90;44.10
25616;DHT22;13482;48.234;13.006;2023-07-08T12:30:52;36.00;44.10
25616;DHT22;13482;48.234;13.006;2023-07-08T12:33:29;36.10;43.70
25616;DHT22;13482;48.234;13.006;2023-07-08T12:36:01;36.20;43.50
25616;DHT22;13482;48.234;13.006;2023-07-08T12:38:37;36.20;43.60
25616;DHT22;13482;48.234;13.006;2023-07-08T12:41:43;36.30;43.30
25616;DHT22;13482;48.234;13.006;2023-07-08T12:44:17;36.30;43.70
25616;DHT22;13482;48.234;13.006;2023-07-08T12:46:48;36.50;42.80
25616;DHT22;13482;48.234;13.006;2023-07-08T12:49:16;36.60;43.60
25616;DHT22;13482;48.234;13.006;2023-07-08T12:51:47;36.70;43.20
25616;DHT22;13482;48.234;13.006;2023-07-08T12:54:15;36.80;43.40
25616;DHT22;13482;48.234;13.006;2023-07-08T12:56:44;36.90;42.60
25616;DHT22;13482;48.234;13.006;2023-07-08T12:59:23;36.90;42.20
25616;DHT22;13482;48.234;13.006;2023-07-08T13:01:52;36.80;41.20
25616;DHT22;13482;48.234;13.006;2023-07-08T13:04:21;36.70;41.90
25616;DHT22;13482;48.234;13.006;2023-07-08T13:06:49;36.50;41.80
25616;DHT22;13482;48.234;13.006;2023-07-08T13:11:58;36.30;42.00
25616;DHT22;13482;48.234;13.006;2023-07-08T13:14:30;36.20;41.90
25616;DHT22;13482;48.234;13.006;2023-07-08T13:16:57;36.20;42.10
25616;DHT22;13482;48.234;13.006;2023-07-08T13:19:25;36.20;41.90
25616;DHT22;13482;48.234;13.006;2023-07-08T13:21:53;36.20;42.20
25616;DHT22;13482;48.234;13.006;2023-07-08T13:24:21;36.20;42.40
25616;DHT22;13482;48.234;13.006;2023-07-08T13:26:49;36.30;42.00
25616;DHT22;13482;48.234;13.006;2023-07-08T13:29:18;36.40;42.20
25616;DHT22;13482;48.234;13.006;2023-07-08T13:31:53;36.50;42.10
25616;DHT22;13482;48.234;13.006;2023-07-08T13:34:24;36.70;42.30
25616;DHT22;13482;48.234;13.006;2023-07-08T13:36:52;36.80;42.20
25616;DHT22;13482;48.234;13.006;2023-07-08T13:39:29;37.00;41.90
25616;DHT22;13482;48.234;13.006;2023-07-08T13:41:59;37.20;41.80
25616;DHT22;13482;48.234;13.006;2023-07-08T13:44:28;37.20;41.30
25616;DHT22;13482;48.234;13.006;2023-07-08T13:46:59;37.20;41.30
25616;DHT22;13482;48.234;13.006;2023-07-08T13:49:29;37.20;41.70
25616;DHT22;13482;48.234;13.006;2023-07-08T13:52:24;37.10;41.80
25616;DHT22;13482;48.234;13.006;2023-07-08T13:55:01;37.20;41.90
25616;DHT22;13482;48.234;13.006;2023-07-08T13:57:36;37.30;42.00
25616;DHT22;13482;48.234;13.006;2023-07-08T14:00:06;37.40;42.30
25616;DHT22;13482;48.234;13.006;2023-07-08T14:02:35;37.60;42.00
25616;DHT22;13482;48.234;13.006;2023-07-08T14:05:05;37.70;42.10
25616;DHT22;13482;48.234;13.006;2023-07-08T14:07:37;37.90;41.90
25616;DHT22;13482;48.234;13.006;2023-07-08T14:10:13;38.00;41.50
25616;DHT22;13482;48.234;13.006;2023-07-08T14:12:40;38.20;40.90
25616;DHT22;13482;48.234;13.006;2023-07-08T14:15:09;38.30;41.30
25616;DHT22;13482;48.234;13.006;2023-07-08T14:17:37;38.40;41.20
25616;DHT22;13482;48.234;13.006;2023-07-08T14:20:15;38.50;41.00
25616;DHT22;13482;48.234;13.006;2023-07-08T14:22:44;38.60;40.80
25616;DHT22;13482;48.234;13.006;2023-07-08T14:25:14;38.70;40.80
25616;DHT22;13482;48.234;13.006;2023-07-08T14:27:42;38.90;40.60
25616;DHT22;13482;48.234;13.006;2023-07-08T14:30:10;39.00;40.70
25616;DHT22;13482;48.234;13.006;2023-07-08T14:32:38;39.00;40.70
25616;DHT22;13482;48.234;13.006;2023-07-08T14:35:21;39.10;40.30
25616;DHT22;13482;48.234;13.006;2023-07-08T14:37:50;39.20;40.20
25616;DHT22;13482;48.234;13.006;2023-07-08T14:40:40;39.30;40.30
25616;DHT22;13482;48.234;13.006;2023-07-08T14:43:27;39.40;40.10
25616;DHT22;13482;48.234;13.006;2023-07-08T14:46:01;39.50;40.40
25616;DHT22;13482;48.234;13.006;2023-07-08T14:48:32;39.60;40.10
25616;DHT22;13482;48.234;13.006;2023-07-08T14:51:00;39.60;39.80
25616;DHT22;13482;48.234;13.006;2023-07-08T14:53:28;39.70;39.80
25616;DHT22;13482;48.234;13.006;2023-07-08T14:55:56;39.80;39.50
25616;DHT22;13482;48.234;13.006;2023-07-08T14:58:25;39.90;39.20
25616;DHT22;13482;48.234;13.006;2023-07-08T15:00:58;39.90;39.10
25616;DHT22;13482;48.234;13.006;2023-07-08T15:03:28;40.00;39.30
25616;DHT22;13482;48.234;13.006;2023-07-08T15:05:55;40.20;39.00
25616;DHT22;13482;48.234;13.006;2023-07-08T15:08:24;40.20;38.90
25616;DHT22;13482;48.234;13.006;2023-07-08T15:10:52;40.40;38.50
25616;DHT22;13482;48.234;13.006;2023-07-08T15:13:23;40.50;38.50
25616;DHT22;13482;48.234;13.006;2023-07-08T15:15:53;40.60;38.40
25616;DHT22;13482;48.234;13.006;2023-07-08T15:18:22;40.70;38.30
25616;DHT22;13482;48.234;13.006;2023-07-08T15:20:51;40.70;37.90
25616;DHT22;13482;48.234;13.006;2023-07-08T15:23:19;40.70;37.80
25616;DHT22;13482;48.234;13.006;2023-07-08T15:25:49;40.70;37.90
25616;DHT22;13482;48.234;13.006;2023-07-08T15:28:20;40.70;37.90
25616;DHT22;13482;48.234;13.006;2023-07-08T15:31:01;40.80;37.70
25616;DHT22;13482;48.234;13.006;2023-07-08T15:33:30;40.80;37.60
25616;DHT22;13482;48.234;13.006;2023-07-08T15:35:58;40.80;37.60
25616;DHT22;13482;48.234;13.006;2023-07-08T15:38:25;40.80;37.50
25616;DHT22;13482;48.234;13.006;2023-07-08T15:40:53;40.80;37.70
25616;DHT22;13482;48.234;13.006;2023-07-08T15:43:20;40.90;37.90
25616;DHT22;13482;48.234;13.006;2023-07-08T15:45:48;41.10;37.90
25616;DHT22;13482;48.234;13.006;2023-07-08T15:48:17;41.20;37.50
25616;DHT22;13482;48.234;13.006;2023-07-08T15:50:46;41.30;37.30
25616;DHT22;13482;48.234;13.006;2023-07-08T15:53:15;41.50;37.30
25616;DHT22;13482;48.234;13.006;2023-07-08T15:55:45;41.70;37.10
25616;DHT22;13482;48.234;13.006;2023-07-08T15:58:31;41.80;36.80
25616;DHT22;13482;48.234;13.006;2023-07-08T16:01:01;42.00;36.50
25616;DHT22;13482;48.234;13.006;2023-07-08T16:03:32;42.10;36.70
25616;DHT22;13482;48.234;13.006;2023-07-08T16:06:02;42.30;36.70
25616;DHT22;13482;48.234;13.006;2023-07-08T16:08:30;42.60;36.80
25616;DHT22;13482;48.234;13.006;2023-07-08T16:11:03;42.90;36.80
25616;DHT22;13482;48.234;13.006;2023-07-08T16:13:35;43.20;36.90
25616;DHT22;13482;48.234;13.006;2023-07-08T16:16:04;43.50;36.60
25616;DHT22;13482;48.234;13.006;2023-07-08T16:18:33;43.80;36.40
25616;DHT22;13482;48.234;13.006;2023-07-08T16:21:00;44.10;35.80
25616;DHT22;13482;48.234;13.006;2023-07-08T16:23:28;44.30;35.40
25616;DHT22;13482;48.234;13.006;2023-07-08T16:25:56;44.40;35.00
25616;DHT22;13482;48.234;13.006;2023-07-08T16:28:30;44.30;34.50